Time;durP1;ratioP1;P1;durP2;ratioP2;P2;SDS_P1;SDS_P2;PMS_P1;PMS_P2;Temp;Humidity;BMP_temperature;BMP_pressure;BME280_temperature;BME280_humidity;BME280_pressure;Samples;Min_cycle;Max_cycle;Signal;HPM_P1;HPM_P2
2021/06/03 00:00:16;;;;;;;6.77;3.30;;;;;;;16.90;61.38;101210.05;128351;1104;62079;-78
2021/06/03 00:02:47;;;;;;;4.97;2.70;;;;;;;16.81;61.71;101212.10;128662;1102;61380;-79
2021/06/03 00:05:17;;;;;;;5.47;3.33;;;;;;;16.74;61.65;101221.11;128368;1101;62109;-78
2021/06/03 00:07:44;;;;;;;4.63;3.60;;;;;;;16.65;62.05;101210.58;128576;1101;62877;-78
2021/06/03 00:10:12;;;;;;;6.87;3.90;;;;;;;16.60;62.16;101210.38;128610;1101;62066;-78
2021/06/03 00:12:40;;;;;;;5.93;3.37;;;;;;;16.53;62.22;101209.51;128402;1101;62725;-78
2021/06/03 00:15:11;;;;;;;7.27;3.67;;;;;;;16.49;62.73;101213.62;128397;1104;62351;-79
2021/06/03 00:17:42;;;;;;;7.57;4.07;;;;;;;16.44;62.85;101210.73;128536;1101;62051;-79
2021/06/03 00:20:12;;;;;;;6.70;4.00;;;;;;;16.39;62.88;101202.48;128396;1104;62187;-79
2021/06/03 00:22:39;;;;;;;9.10;4.30;;;;;;;16.31;63.59;101201.61;128412;1104;62172;-79
2021/06/03 00:25:08;;;;;;;7.47;4.23;;;;;;;16.27;63.55;101192.33;128377;1104;62010;-79
2021/06/03 00:27:35;;;;;;;7.87;4.20;;;;;;;16.20;63.74;101188.81;128565;1101;61979;-79
2021/06/03 00:30:05;;;;;;;6.50;3.90;;;;;;;16.14;64.22;101194.14;128399;1104;63854;-79
2021/06/03 00:32:32;;;;;;;8.37;4.53;;;;;;;16.07;64.38;101188.77;128336;1104;62382;-78
2021/06/03 00:34:59;;;;;;;4.77;3.57;;;;;;;16.00;64.68;101190.56;128312;1104;62017;-78
2021/06/03 00:37:26;;;;;;;11.07;4.43;;;;;;;15.94;64.85;101188.68;128584;1101;62025;-78
2021/06/03 00:39:53;;;;;;;5.57;3.53;;;;;;;15.89;65.23;101187.42;128577;1101;62568;-78
2021/06/03 00:42:20;;;;;;;8.67;4.87;;;;;;;15.83;64.99;101188.24;128441;1102;62912;-78
2021/06/03 00:44:47;;;;;;;5.23;3.80;;;;;;;15.79;65.45;101186.13;128367;1104;62106;-78
2021/06/03 00:47:18;;;;;;;5.33;3.53;;;;;;;15.74;65.32;101188.59;128363;1104;62049;-78
2021/06/03 00:49:45;;;;;;;6.90;3.80;;;;;;;15.69;65.38;101187.30;128380;1101;62175;-78
2021/06/03 00:52:12;;;;;;;7.80;5.13;;;;;;;15.68;65.64;101192.83;128538;1101;62161;-78
2021/06/03 00:54:39;;;;;;;10.10;4.10;;;;;;;15.66;65.79;101198.40;128387;1105;62132;-79
2021/06/03 00:57:06;;;;;;;7.57;4.97;;;;;;;15.64;65.92;101192.42;128546;1101;63748;-79
2021/06/03 00:59:33;;;;;;;6.03;4.27;;;;;;;15.61;66.25;101189.30;128399;1102;62330;-78
2021/06/03 01:02:00;;;;;;;8.23;3.97;;;;;;;15.58;66.54;101189.70;128654;1101;62080;-80
2021/06/03 01:04:28;;;;;;;6.97;4.67;;;;;;;15.53;66.36;101192.13;128406;1104;61957;-80
2021/06/03 01:06:55;;;;;;;7.60;3.73;;;;;;;15.48;66.78;101198.06;128593;1101;61981;-80
2021/06/03 01:09:31;;;;;;;7.83;4.17;;;;;;;15.43;66.78;101190.63;128388;1101;62545;-80
2021/06/03 01:12:09;;;;;;;5.87;3.63;;;;;;;15.38;66.88;101201.06;128371;1102;62478;-80
2021/06/03 01:14:41;;;;;;;5.97;3.60;;;;;;;15.34;67.17;101194.45;128523;1101;62064;-80
2021/06/03 01:17:10;;;;;;;6.67;3.37;;;;;;;15.32;67.70;101195.67;128421;1101;62857;-80
2021/06/03 01:19:40;;;;;;;6.10;3.30;;;;;;;15.28;67.41;101205.95;128365;1104;62776;-81
2021/06/03 01:22:12;;;;;;;7.40;4.53;;;;;;;15.27;67.64;101206.95;128352;1104;62058;-81
2021/06/03 01:24:46;;;;;;;5.87;3.57;;;;;;;15.26;67.46;101210.66;128563;1101;62097;-80
2021/06/03 01:27:35;;;;;;;7.93;4.57;;;;;;;15.25;67.62;101207.13;128628;1101;62043;-80
2021/06/03 01:30:26;;;;;;;7.57;3.67;;;;;;;15.25;67.69;101200.97;128598;1101;62013;-80
2021/06/03 01:33:04;;;;;;;8.07;3.70;;;;;;;15.22;68.74;101204.04;128371;1104;62867;-80
2021/06/03 01:35:36;;;;;;;5.90;3.97;;;;;;;15.20;68.37;101203.41;128372;1104;62067;-80
2021/06/03 01:38:11;;;;;;;4.98;3.13;;;;;;;15.20;68.78;101198.06;128401;1101;62289;-80
2021/06/03 01:40:41;;;;;;;9.90;4.60;;;;;;;15.18;68.24;101200.09;128337;1104;62004;-80
2021/06/03 01:43:10;;;;;;;7.53;4.00;;;;;;;15.16;68.55;101196.79;128341;1101;61972;-81
2021/06/03 01:45:37;;;;;;;5.33;3.83;;;;;;;15.15;68.80;101200.47;128554;1101;62794;-81
2021/06/03 01:48:06;;;;;;;6.07;4.27;;;;;;;15.14;68.63;101193.48;128579;1101;61995;-81
2021/06/03 01:50:33;;;;;;;9.20;3.80;;;;;;;15.09;68.38;101191.39;128590;1101;61956;-80
2021/06/03 01:53:01;;;;;;;7.47;4.83;;;;;;;15.06;68.99;101195.25;128456;1101;62103;-81
2021/06/03 01:55:29;;;;;;;7.40;4.33;;;;;;;15.02;68.62;101198.50;128394;1104;62051;-80
2021/06/03 01:57:59;;;;;;;6.00;3.93;;;;;;;14.98;69.17;101195.41;128397;1101;63288;-80
2021/06/03 02:00:26;;;;;;;9.70;3.87;;;;;;;14.95;68.92;101194.95;128356;1104;61980;-81
2021/06/03 02:02:54;;;;;;;6.83;4.53;;;;;;;14.92;69.38;101196.17;128388;1104;62062;-81
2021/06/03 02:05:24;;;;;;;7.20;4.60;;;;;;;14.90;69.59;101198.20;128540;1101;62087;-81
2021/06/03 02:07:52;;;;;;;6.33;4.40;;;;;;;14.83;69.31;101195.48;128375;1102;61895;-81
2021/06/03 02:10:20;;;;;;;7.10;4.67;;;;;;;14.78;69.38;101197.05;128378;1101;62072;-81
2021/06/03 02:13:10;;;;;;;7.47;4.37;;;;;;;14.70;69.69;101187.31;128382;1103;62182;-81
2021/06/03 02:16:02;;;;;;;6.00;4.30;;;;;;;14.62;70.00;101196.29;128589;1101;62062;-81
2021/06/03 02:18:42;;;;;;;9.53;4.77;;;;;;;14.53;70.57;101210.72;128585;1101;61963;-82
2021/06/03 02:21:10;;;;;;;7.33;4.10;;;;;;;14.44;70.74;101214.53;128411;1104;62849;-82
2021/06/03 02:23:38;;;;;;;10.47;6.20;;;;;;;14.37;70.72;101205.63;128594;1101;62638;-82
2021/06/03 02:26:05;;;;;;;8.40;4.70;;;;;;;14.33;70.71;101207.02;128317;1104;62906;-82
2021/06/03 02:28:36;;;;;;;8.20;5.00;;;;;;;14.28;71.11;101205.73;128528;1101;62247;-82
2021/06/03 02:31:03;;;;;;;6.83;4.73;;;;;;;14.18;71.52;101199.84;128380;1102;62052;-82
2021/06/03 02:33:31;;;;;;;7.47;4.90;;;;;;;14.22;71.33;101210.98;128559;1101;61929;-80
2021/06/03 02:35:59;;;;;;;7.83;4.60;;;;;;;14.19;71.76;101211.34;128391;1104;62800;-80
2021/06/03 02:38:29;;;;;;;8.23;4.80;;;;;;;14.13;72.15;101207.59;128577;1101;62137;-81
2021/06/03 02:41:03;;;;;;;7.47;4.57;;;;;;;14.06;72.10;101207.48;128399;1104;62376;-80
2021/06/03 02:43:30;;;;;;;6.50;4.63;;;;;;;13.99;72.39;101211.91;128417;1101;62210;-80
2021/06/03 02:45:57;;;;;;;7.77;4.90;;;;;;;13.94;72.69;101208.14;128602;1101;61963;-81
2021/06/03 02:48:24;;;;;;;7.07;4.67;;;;;;;13.88;72.62;101209.72;128373;1104;62565;-81
2021/06/03 02:50:51;;;;;;;6.67;4.70;;;;;;;13.84;73.03;101214.58;128498;1101;62979;-81
2021/06/03 02:53:19;;;;;;;6.33;4.40;;;;;;;13.80;73.11;101218.63;128354;1104;62154;-81
2021/06/03 02:55:46;;;;;;;6.80;4.67;;;;;;;13.74;73.49;101208.69;128528;1101;62003;-81
2021/06/03 02:58:14;;;;;;;7.87;4.90;;;;;;;13.69;73.38;101213.76;128358;1104;62054;-81
2021/06/03 03:00:41;;;;;;;6.80;4.57;;;;;;;13.63;73.89;101211.81;128551;1101;62111;-81
2021/06/03 03:03:09;;;;;;;6.40;4.50;;;;;;;13.58;74.20;101208.85;128372;1104;62087;-81
2021/06/03 03:05:39;;;;;;;6.60;4.93;;;;;;;13.53;74.28;101205.91;128374;1102;62152;-81
2021/06/03 03:08:08;;;;;;;7.20;4.33;;;;;;;13.46;75.10;101209.30;128556;1101;62044;-81
2021/06/03 03:10:42;;;;;;;5.87;4.23;;;;;;;13.41;74.70;101209.03;128402;1104;62074;-80
2021/06/03 03:13:09;;;;;;;5.27;4.13;;;;;;;13.37;75.19;101210.40;128578;1101;62823;-81
2021/06/03 03:15:37;;;;;;;8.73;4.80;;;;;;;13.33;75.02;101214.43;128331;1104;63758;-81
2021/06/03 03:18:05;;;;;;;11.73;4.80;;;;;;;13.31;75.68;101213.78;128420;1104;62341;-81
2021/06/03 03:20:33;;;;;;;8.87;5.03;;;;;;;13.29;75.45;101220.30;128405;1104;61968;-80
2021/06/03 03:23:01;;;;;;;8.03;4.33;;;;;;;13.28;75.25;101219.42;128403;1101;62349;-80
2021/06/03 03:25:29;;;;;;;7.43;4.70;;;;;;;13.28;75.55;101222.09;128517;1101;61859;-80
2021/06/03 03:28:01;;;;;;;7.80;5.10;;;;;;;13.28;75.58;101223.93;128567;1101;62042;-79
2021/06/03 03:30:30;;;;;;;6.03;4.23;;;;;;;13.26;75.50;101221.47;128421;1102;62010;-80
2021/06/03 03:32:58;;;;;;;7.57;5.20;;;;;;;13.26;75.72;101232.13;128398;1102;61944;-80
2021/06/03 03:35:25;;;;;;;6.47;5.30;;;;;;;13.25;75.75;101230.45;128424;1104;62158;-80
2021/06/03 03:37:52;;;;;;;7.10;4.73;;;;;;;13.24;75.95;101232.30;128336;1101;62819;-80
2021/06/03 03:40:22;;;;;;;6.87;4.47;;;;;;;13.26;75.89;101232.13;128536;1101;61915;-80
2021/06/03 03:42:50;;;;;;;10.10;6.03;;;;;;;13.27;75.87;101236.43;128371;1102;62104;-80
2021/06/03 03:45:22;;;;;;;6.80;4.83;;;;;;;13.29;76.02;101236.30;128433;1102;62086;-81
2021/06/03 03:47:49;;;;;;;7.10;4.67;;;;;;;13.31;76.15;101239.61;128401;1104;62405;-81
2021/06/03 03:50:18;;;;;;;8.87;5.40;;;;;;;13.32;75.97;101239.41;128363;1104;62889;-80
2021/06/03 03:52:47;;;;;;;8.87;5.20;;;;;;;13.36;76.11;101240.70;128537;1101;62239;-80
2021/06/03 03:55:16;;;;;;;7.60;4.70;;;;;;;13.38;76.11;101252.02;128355;1102;61990;-80
2021/06/03 03:57:46;;;;;;;7.03;5.13;;;;;;;13.40;75.99;101254.51;128338;1104;62020;-80
2021/06/03 04:00:21;;;;;;;7.47;5.17;;;;;;;13.40;76.13;101255.33;128638;1101;62200;-81
2021/06/03 04:02:48;;;;;;;9.73;6.13;;;;;;;13.43;76.11;101249.66;128615;1101;62734;-81
2021/06/03 04:05:15;;;;;;;8.07;4.83;;;;;;;13.44;76.11;101251.30;128383;1102;62104;-80
2021/06/03 04:07:44;;;;;;;6.83;4.93;;;;;;;13.44;76.64;101251.30;128407;1102;62211;-80
2021/06/03 04:10:17;;;;;;;6.67;4.57;;;;;;;13.46;76.21;101259.94;128426;1101;62097;-80
2021/06/03 04:12:46;;;;;;;6.67;4.70;;;;;;;13.50;76.09;101255.09;128619;1101;62024;-81
2021/06/03 04:15:14;;;;;;;8.07;5.63;;;;;;;13.54;76.30;101258.23;128373;1104;61988;-80
2021/06/03 04:17:42;;;;;;;8.07;5.10;;;;;;;13.58;76.06;101257.69;128550;1101;62223;-80
2021/06/03 04:20:12;;;;;;;7.20;5.20;;;;;;;13.62;76.22;101260.80;128330;1104;62136;-80
2021/06/03 04:22:40;;;;;;;7.17;5.27;;;;;;;13.65;76.21;101257.78;128396;1101;62390;-81
2021/06/03 04:25:08;;;;;;;10.33;5.20;;;;;;;13.66;75.98;101259.42;128555;1102;62360;-81
2021/06/03 04:27:35;;;;;;;6.30;4.53;;;;;;;13.68;76.22;101257.41;128404;1104;63154;-81
2021/06/03 04:30:06;;;;;;;11.27;5.27;;;;;;;13.70;75.80;101260.72;128528;1101;62309;-81
2021/06/03 04:32:33;;;;;;;8.90;4.67;;;;;;;13.73;76.35;101255.05;128623;1102;61968;-81
2021/06/03 04:35:00;;;;;;;5.87;4.57;;;;;;;13.75;76.03;101260.17;128564;1101;62491;-80
2021/06/03 04:37:27;;;;;;;7.27;4.77;;;;;;;13.78;76.22;101254.49;128594;1101;61946;-81
2021/06/03 04:39:54;;;;;;;9.67;5.00;;;;;;;13.80;76.35;101258.63;128569;1101;63317;-81
2021/06/03 04:42:21;;;;;;;8.27;5.40;;;;;;;13.85;76.28;101264.23;128578;1101;62001;-81
2021/06/03 04:44:48;;;;;;;11.23;5.63;;;;;;;13.91;76.28;101261.86;128406;1101;62057;-81
2021/06/03 04:47:15;;;;;;;8.30;5.10;;;;;;;13.94;75.96;101266.81;128592;1101;61988;-81
2021/06/03 04:49:43;;;;;;;7.30;5.03;;;;;;;14.01;76.30;101267.76;128388;1104;62169;-80
2021/06/03 04:52:25;;;;;;;7.60;4.90;;;;;;;14.09;76.14;101267.67;128398;1104;62007;-81
2021/06/03 04:54:54;;;;;;;8.70;4.60;;;;;;;14.20;75.88;101272.53;128530;1101;62631;-81
2021/06/03 04:57:22;;;;;;;7.23;4.37;;;;;;;14.28;76.33;101272.45;128641;1101;62058;-80
2021/06/03 04:59:49;;;;;;;7.73;4.63;;;;;;;14.38;75.72;101273.99;128554;1101;62312;-81
2021/06/03 05:02:17;;;;;;;5.37;3.80;;;;;;;14.44;76.17;101273.25;128633;1101;62301;-82
2021/06/03 05:04:44;;;;;;;6.90;3.73;;;;;;;14.49;76.28;101276.17;128608;1101;62111;-79
2021/06/03 05:07:11;;;;;;;8.33;4.53;;;;;;;14.55;76.62;101267.45;128356;1104;62095;-82
2021/06/03 05:09:38;;;;;;;7.97;4.60;;;;;;;14.65;76.31;101276.00;128530;1101;62014;-76
2021/06/03 05:12:07;;;;;;;7.30;5.13;;;;;;;14.76;76.16;101274.69;128386;1104;61907;-78
2021/06/03 05:14:34;;;;;;;7.47;4.70;;;;;;;14.91;75.81;101269.30;128385;1104;61892;-79
2021/06/03 05:17:02;;;;;;;7.37;3.43;;;;;;;15.06;75.43;101283.42;128579;1101;62921;-84
2021/06/03 05:19:30;;;;;;;9.60;3.70;;;;;;;15.20;75.29;101279.05;128347;1104;62085;-78
2021/06/03 05:21:57;;;;;;;8.17;4.70;;;;;;;15.34;75.43;101281.84;128316;1102;62040;-80
2021/06/03 05:24:24;;;;;;;7.97;4.63;;;;;;;15.47;74.61;101280.13;128362;1104;62161;-80
2021/06/03 05:26:51;;;;;;;10.60;4.60;;;;;;;15.62;74.85;101281.86;128548;1101;62026;-79
2021/06/03 05:29:18;;;;;;;7.87;5.43;;;;;;;15.76;74.41;101280.98;128365;1102;62736;-79
2021/06/03 05:31:45;;;;;;;9.50;5.93;;;;;;;15.94;74.05;101280.51;128554;1101;62002;-80
2021/06/03 05:34:14;;;;;;;7.90;5.23;;;;;;;16.12;73.47;101288.02;128596;1101;61984;-80
2021/06/03 05:36:41;;;;;;;7.27;4.03;;;;;;;16.28;73.31;101294.91;128522;1101;61914;-80
2021/06/03 05:39:09;;;;;;;9.17;5.40;;;;;;;16.46;72.75;101289.83;128516;1101;62350;-79
2021/06/03 05:41:37;;;;;;;7.33;3.60;;;;;;;16.64;72.03;101289.30;128581;1101;62432;-79
2021/06/03 05:44:06;;;;;;;8.37;4.00;;;;;;;16.84;71.72;101293.92;128330;1105;61394;-79
2021/06/03 05:46:35;;;;;;;7.75;4.60;;;;;;;17.06;71.22;101290.05;128379;1101;62091;-79
2021/06/03 05:49:04;;;;;;;8.83;5.00;;;;;;;17.27;70.73;101291.73;128562;1101;62012;-79
2021/06/03 05:51:32;;;;;;;8.67;4.73;;;;;;;17.49;69.64;101292.39;128592;1101;62377;-79
2021/06/03 05:53:59;;;;;;;10.70;4.73;;;;;;;17.71;68.47;101302.91;128367;1101;62942;-79
2021/06/03 05:56:27;;;;;;;7.37;4.83;;;;;;;17.96;67.80;101299.59;128534;1101;61499;-80
2021/06/03 05:58:55;;;;;;;9.57;4.97;;;;;;;18.17;67.09;101301.20;128600;1101;61960;-80
2021/06/03 06:01:23;;;;;;;8.70;4.50;;;;;;;18.36;65.54;101304.87;128529;1101;62218;-79
2021/06/03 06:04:13;;;;;;;10.97;5.03;;;;;;;18.51;65.28;101302.77;128578;1101;62528;-79
2021/06/03 06:06:40;;;;;;;8.37;4.53;;;;;;;18.65;65.10;101312.41;128369;1104;61982;-80
2021/06/03 06:09:11;;;;;;;7.83;4.90;;;;;;;18.82;64.62;101307.40;128357;1104;62478;-79
2021/06/03 06:11:39;;;;;;;10.37;4.93;;;;;;;18.95;63.93;101317.25;128373;1104;62755;-78
2021/06/03 06:14:07;;;;;;;15.87;6.00;;;;;;;19.03;63.40;101310.81;128380;1104;62503;-80
2021/06/03 06:16:35;;;;;;;10.33;4.83;;;;;;;19.12;63.19;101312.20;128566;1101;62040;-78
2021/06/03 06:19:03;;;;;;;9.47;4.73;;;;;;;19.22;62.99;101319.80;128356;1104;62803;-78
2021/06/03 06:21:33;;;;;;;10.80;4.73;;;;;;;19.30;62.71;101319.55;128676;1101;61923;-78
2021/06/03 06:24:01;;;;;;;6.77;4.27;;;;;;;19.39;62.96;101312.84;128469;1101;61947;-78
2021/06/03 06:26:29;;;;;;;9.30;5.17;;;;;;;19.45;62.50;101325.42;128656;1101;61388;-78
2021/06/03 06:28:56;;;;;;;11.73;5.47;;;;;;;19.49;62.43;101323.13;128437;1104;61978;-78
2021/06/03 06:31:24;;;;;;;14.60;5.50;;;;;;;19.58;62.12;101320.99;128475;1104;62445;-79
2021/06/03 06:33:51;;;;;;;11.97;5.97;;;;;;;19.67;62.17;101325.05;128631;1101;62139;-79
2021/06/03 06:36:18;;;;;;;11.80;5.43;;;;;;;19.75;61.83;101322.93;128412;1104;62387;-79
2021/06/03 06:38:45;;;;;;;8.03;4.50;;;;;;;19.81;61.42;101325.80;128688;1101;62008;-79
2021/06/03 06:41:12;;;;;;;8.93;4.63;;;;;;;19.87;61.32;101325.73;128706;1101;62468;-78
2021/06/03 06:43:39;;;;;;;10.47;4.97;;;;;;;19.92;61.38;101328.58;128410;1104;61990;-78
2021/06/03 06:46:07;;;;;;;8.93;4.97;;;;;;;20.06;61.44;101323.05;128581;1101;61991;-78
2021/06/03 06:48:34;;;;;;;11.70;5.33;;;;;;;20.16;61.02;101320.67;128733;1101;61999;-77
2021/06/03 06:51:03;;;;;;;6.93;3.87;;;;;;;20.33;60.70;101320.91;128460;1101;62371;-77
2021/06/03 06:53:30;;;;;;;6.77;4.27;;;;;;;20.42;60.23;101322.25;128452;1102;63353;-80
2021/06/03 06:55:57;;;;;;;10.17;5.07;;;;;;;20.50;59.62;101326.52;128674;1101;61962;-80
2021/06/03 06:58:28;;;;;;;8.17;4.83;;;;;;;20.62;59.68;101332.84;128676;1101;63024;-79
2021/06/03 07:00:56;;;;;;;7.37;4.30;;;;;;;20.81;60.03;101333.64;128769;1101;62777;-81
2021/06/03 07:03:23;;;;;;;9.50;5.90;;;;;;;20.98;59.44;101328.44;128445;1101;62030;-78
2021/06/03 07:05:50;;;;;;;9.57;4.67;;;;;;;21.06;57.03;101335.37;128435;1104;62118;-77
2021/06/03 07:08:18;;;;;;;6.60;4.13;;;;;;;21.08;55.87;101335.96;128700;1101;62010;-77
2021/06/03 07:10:45;;;;;;;6.90;4.47;;;;;;;21.15;56.59;101329.43;128662;1102;61997;-77
2021/06/03 07:13:12;;;;;;;10.80;5.50;;;;;;;21.37;56.85;101331.59;128450;1101;61975;-79
2021/06/03 07:15:40;;;;;;;11.37;4.57;;;;;;;21.58;56.66;101332.96;128755;1101;61989;-80
2021/06/03 07:18:07;;;;;;;7.80;4.67;;;;;;;21.79;56.23;101328.88;128722;1101;62124;-80
2021/06/03 07:20:34;;;;;;;14.70;5.43;;;;;;;21.99;56.00;101318.55;128486;1102;62855;-80
2021/06/03 07:23:04;;;;;;;10.50;5.10;;;;;;;22.19;55.32;101317.35;128458;1101;62133;-80
2021/06/03 07:25:35;;;;;;;10.07;3.63;;;;;;;22.35;54.78;101326.63;128416;1104;62052;-79
2021/06/03 07:28:04;;;;;;;9.53;5.20;;;;;;;22.49;54.24;101327.20;128715;1101;62170;-79
2021/06/03 07:30:31;;;;;;;8.13;4.20;;;;;;;22.68;53.74;101325.96;128684;1101;62228;-78
2021/06/03 07:32:59;;;;;;;6.93;4.30;;;;;;;22.91;54.13;101319.64;128761;1101;63153;-76
2021/06/03 07:35:28;;;;;;;9.47;4.63;;;;;;;23.10;52.88;101322.16;128685;1101;62077;-76
2021/06/03 07:37:56;;;;;;;30.30;23.40;;;;;;;23.17;51.46;101315.53;128710;1101;62298;-77
2021/06/03 07:40:27;;;;;;;10.63;4.83;;;;;;;23.27;51.29;101317.61;128423;1104;62029;-77
2021/06/03 07:42:55;;;;;;;7.30;4.30;;;;;;;23.36;51.70;101312.61;128395;1104;61432;-77
2021/06/03 07:45:25;;;;;;;8.87;3.33;;;;;;;23.48;50.79;101310.63;128726;1101;62023;-77
2021/06/03 07:47:55;;;;;;;9.17;4.47;;;;;;;23.59;51.71;101317.05;128651;1101;61979;-77
2021/06/03 07:50:27;;;;;;;7.53;3.93;;;;;;;23.73;50.92;101309.39;128441;1102;62334;-77
2021/06/03 07:52:55;;;;;;;6.87;3.97;;;;;;;23.70;49.16;101313.42;128395;1104;61914;-77
2021/06/03 07:55:22;;;;;;;7.17;4.33;;;;;;;23.73;50.49;101315.63;128425;1104;62052;-77
2021/06/03 07:57:53;;;;;;;5.77;3.60;;;;;;;23.80;50.17;101310.91;128465;1101;62040;-77
2021/06/03 08:00:22;;;;;;;7.23;3.57;;;;;;;23.77;49.14;101321.41;128417;1104;61457;-77
2021/06/03 08:02:50;;;;;;;16.07;11.63;;;;;;;23.75;49.47;101321.62;128671;1101;62025;-77
2021/06/03 08:05:23;;;;;;;10.40;7.47;;;;;;;23.78;49.20;101323.88;128707;1101;62188;-77
2021/06/03 08:07:52;;;;;;;8.60;3.70;;;;;;;23.85;49.16;101320.99;128666;1101;61837;-80
2021/06/03 08:10:24;;;;;;;5.50;3.93;;;;;;;23.89;48.89;101324.03;128442;1101;62026;-78
2021/06/03 08:12:53;;;;;;;4.80;3.00;;;;;;;23.96;48.56;101320.06;128625;1101;62123;-78
2021/06/03 08:15:22;;;;;;;5.77;3.30;;;;;;;24.07;48.90;101325.63;128679;1101;63503;-77
2021/06/03 08:17:49;;;;;;;6.87;3.33;;;;;;;24.12;48.32;101326.53;128386;1104;62036;-77
2021/06/03 08:20:20;;;;;;;6.57;4.90;;;;;;;24.14;47.95;101326.27;128433;1103;62147;-77
2021/06/03 08:22:48;;;;;;;4.37;3.43;;;;;;;24.21;49.05;101326.92;128763;1101;62844;-77
2021/06/03 08:25:17;;;;;;;5.03;2.97;;;;;;;24.37;49.43;101328.73;128694;1101;61979;-77
2021/06/03 08:27:45;;;;;;;4.07;2.80;;;;;;;24.51;48.76;101328.41;128766;1101;62095;-78
2021/06/03 08:30:14;;;;;;;8.37;3.47;;;;;;;24.63;49.18;101334.53;128425;1101;61940;-79
2021/06/03 08:32:48;;;;;;;4.47;2.47;;;;;;;24.73;48.70;101334.63;128495;1102;62190;-80
2021/06/03 08:35:18;;;;;;;5.43;3.30;;;;;;;24.80;48.91;101332.55;128469;1104;63103;-80
2021/06/03 08:37:51;;;;;;;7.80;5.47;;;;;;;24.92;48.31;101332.39;128501;1101;61978;-81
2021/06/03 08:40:26;;;;;;;4.23;2.87;;;;;;;24.99;48.46;101333.02;128420;1104;61459;-81
2021/06/03 08:42:56;;;;;;;3.17;2.33;;;;;;;25.09;48.45;101337.72;128458;1102;63104;-80
2021/06/03 08:45:25;;;;;;;4.87;2.70;;;;;;;25.16;48.22;101342.94;128370;1103;62007;-80
2021/06/03 08:47:53;;;;;;;5.67;2.73;;;;;;;25.21;48.03;101345.75;128402;1104;62029;-81
2021/06/03 08:50:22;;;;;;;6.77;2.87;;;;;;;25.30;48.37;101348.81;128424;1101;61953;-80
2021/06/03 08:52:52;;;;;;;3.67;2.53;;;;;;;25.39;47.33;101337.20;128742;1101;62081;-80
2021/06/03 08:58:10;;;;;;;3.70;2.53;;;;;;;25.54;47.76;101332.98;128521;1104;61940;-79
2021/06/03 09:00:39;;;;;;;4.13;2.73;;;;;;;25.59;47.97;101331.14;128740;1101;61987;-83
2021/06/03 09:03:07;;;;;;;5.10;3.20;;;;;;;25.70;47.77;101333.94;128453;1101;62047;-81
2021/06/03 09:05:35;;;;;;;2.97;2.43;;;;;;;25.82;47.52;101334.54;128676;1101;61859;-78
2021/06/03 09:08:17;;;;;;;5.17;2.60;;;;;;;25.90;46.53;101335.99;128481;1104;62378;-82
2021/06/03 09:10:45;;;;;;;5.67;2.70;;;;;;;25.94;46.29;101340.64;128488;1101;61955;-83
2021/06/03 09:13:20;;;;;;;3.67;2.60;;;;;;;26.00;45.79;101336.88;128422;1101;62871;-81
2021/06/03 09:15:52;;;;;;;4.50;2.77;;;;;;;26.07;46.16;101335.83;128754;1101;62017;-80
2021/06/03 09:18:39;;;;;;;4.57;2.53;;;;;;;26.09;45.26;101337.19;128684;1101;62172;-82
2021/06/03 09:21:13;;;;;;;5.23;2.50;;;;;;;26.16;45.72;101336.95;128479;1104;61974;-81
2021/06/03 09:23:46;;;;;;;3.67;2.17;;;;;;;26.17;45.75;101341.32;128741;1101;62213;-81
2021/06/03 09:26:16;;;;;;;4.90;2.30;;;;;;;26.24;45.34;101339.17;128425;1104;62780;-81
2021/06/03 09:28:47;;;;;;;6.37;2.67;;;;;;;26.29;45.61;101336.50;128402;1105;62089;-81
2021/06/03 09:31:20;;;;;;;5.57;3.07;;;;;;;26.37;44.85;101335.99;128778;1101;62466;-81
2021/06/03 09:33:57;;;;;;;3.97;3.03;;;;;;;26.36;44.79;101333.53;128428;1101;61907;-82
2021/06/03 09:36:29;;;;;;;6.17;4.13;;;;;;;26.38;44.79;101345.78;128751;1101;62018;-81
2021/06/03 09:39:08;;;;;;;3.87;2.70;;;;;;;26.44;44.85;101330.30;128771;1101;62275;-81
2021/06/03 09:42:02;;;;;;;6.07;3.40;;;;;;;26.51;44.92;101340.94;128468;1102;62173;-81
2021/06/03 09:44:50;;;;;;;5.17;3.27;;;;;;;26.63;44.91;101338.84;128384;1105;62013;-82
2021/06/03 09:47:28;;;;;;;3.87;2.70;;;;;;;26.72;44.13;101342.67;128486;1101;62381;-80
2021/06/03 09:49:58;;;;;;;4.23;2.70;;;;;;;26.77;44.09;101350.03;128429;1104;62049;-81
2021/06/03 09:52:32;;;;;;;7.73;4.47;;;;;;;26.74;43.70;101348.67;128427;1104;62835;-81
2021/06/03 09:55:09;;;;;;;6.30;2.63;;;;;;;26.85;42.77;101350.33;128476;1101;61996;-80
2021/06/03 09:57:39;;;;;;;3.80;2.43;;;;;;;26.94;43.27;101361.50;128437;1104;62136;-83
2021/06/03 10:00:11;;;;;;;9.03;3.63;;;;;;;27.00;43.56;101344.09;128425;1104;62121;-82
2021/06/03 10:02:38;;;;;;;4.73;2.80;;;;;;;27.19;43.99;101352.56;128710;1101;62070;-81
2021/06/03 10:05:17;;;;;;;5.57;3.50;;;;;;;27.37;43.54;101350.43;128459;1101;62030;-81
2021/06/03 10:08:01;;;;;;;9.23;3.43;;;;;;;27.63;43.87;101352.08;128481;1102;62008;-81
2021/06/03 10:10:30;;;;;;;4.33;2.73;;;;;;;27.74;42.03;101341.98;128759;1101;61869;-82
2021/06/03 10:13:03;;;;;;;5.50;2.70;;;;;;;27.77;41.78;101344.14;128455;1104;62053;-80
2021/06/03 10:15:30;;;;;;;3.93;2.50;;;;;;;27.80;40.60;101346.33;128434;1104;62003;-79
2021/06/03 10:18:00;;;;;;;7.73;2.40;;;;;;;27.83;40.50;101342.23;128401;1104;62180;-79
2021/06/03 10:20:37;;;;;;;4.23;2.60;;;;;;;27.85;40.43;101337.33;128565;1101;62357;-79
2021/06/03 10:23:07;;;;;;;8.47;3.00;;;;;;;27.88;41.44;101344.16;128710;1101;62100;-82
2021/06/03 10:25:41;;;;;;;4.47;3.00;;;;;;;27.99;41.30;101338.42;128686;1101;62693;-81
2021/06/03 10:28:19;;;;;;;5.40;2.63;;;;;;;28.06;40.39;101338.94;128533;1102;62354;-82
2021/06/03 10:30:52;;;;;;;4.13;2.53;;;;;;;28.07;39.90;101345.20;128511;1101;63684;-82
2021/06/03 10:33:22;;;;;;;4.53;2.43;;;;;;;28.08;40.02;101346.05;128454;1104;62544;-83
2021/06/03 10:35:56;;;;;;;4.60;2.70;;;;;;;28.15;40.06;101341.10;128392;1104;61946;-87
2021/06/03 10:38:24;;;;;;;;;;;;;;;28.24;40.58;101350.34;128764;1101;61986;-84
2021/06/03 10:40:54;;;;;;;5.17;2.57;;;;;;;28.32;40.17;101344.31;128700;1101;61939;-84
2021/06/03 10:43:22;;;;;;;7.93;6.20;;;;;;;28.41;40.19;101341.81;128445;1101;62155;-85
2021/06/03 10:45:50;;;;;;;5.17;2.63;;;;;;;28.53;39.66;101338.80;128449;1102;62030;-84
2021/06/03 10:48:17;;;;;;;6.23;4.63;;;;;;;28.57;39.51;101337.16;128386;1104;62897;-84
2021/06/03 10:50:49;;;;;;;4.70;2.73;;;;;;;28.63;39.35;101341.49;128451;1102;61995;-79
2021/06/03 10:53:23;;;;;;;4.13;2.37;;;;;;;28.65;38.17;101340.11;128502;1101;62148;-80
2021/06/03 10:55:52;;;;;;;3.03;2.07;;;;;;;28.73;38.85;101346.88;128394;1104;62485;-81
2021/06/03 10:58:32;;;;;;;6.53;2.90;;;;;;;28.75;39.31;101344.68;128705;1101;61969;-83
2021/06/03 11:01:05;;;;;;;3.43;1.77;;;;;;;28.78;38.90;101344.13;128406;1104;62058;-86
2021/06/03 11:03:38;;;;;;;3.93;2.65;;;;;;;28.79;39.05;101339.48;128502;1102;62067;-80
2021/06/03 11:06:11;;;;;;;5.83;2.98;;;;;;;28.71;38.88;101342.80;128749;1101;61942;-85
2021/06/03 11:08:54;;;;;;;4.98;2.25;;;;;;;28.72;39.40;101341.72;128502;1101;61962;-80
2021/06/03 11:11:27;;;;;;;6.17;4.27;;;;;;;28.75;39.65;101339.22;128662;1101;62137;-80
2021/06/03 11:13:55;;;;;;;3.90;2.50;;;;;;;28.76;39.24;101335.41;128472;1104;62196;-81
2021/06/03 11:16:34;;;;;;;4.00;2.40;;;;;;;28.86;39.26;101324.43;128488;1104;62116;-82
2021/06/03 11:19:02;;;;;;;4.63;2.70;;;;;;;28.85;39.92;101322.78;128727;1101;62549;-82
2021/06/03 11:21:35;;;;;;;4.63;2.47;;;;;;;28.92;39.41;101327.92;128646;1101;62102;-84
2021/06/03 11:24:21;;;;;;;5.00;2.58;;;;;;;28.98;39.48;101328.72;128505;1101;61929;-84
2021/06/03 11:26:51;;;;;;;4.53;2.60;;;;;;;29.07;38.72;101332.47;128779;1101;62272;-77
2021/06/03 11:29:28;;;;;;;5.17;2.93;;;;;;;29.13;38.79;101328.63;128388;1104;61957;-78
2021/06/03 11:32:01;;;;;;;2.67;1.80;;;;;;;29.18;38.51;101322.30;128436;1101;62193;-78